createdAt,value
2023-06-01T00:00:11.967Z,100316.97
2023-06-01T00:02:43.217Z,100317.91
2023-06-01T00:05:12.129Z,100301.50
2023-06-01T00:07:40.837Z,100317.00
2023-06-01T00:10:10.232Z,100311.13
2023-06-01T00:12:38.716Z,100317.97
2023-06-01T00:15:10.027Z,100309.22
2023-06-01T00:17:38.665Z,100318.78
2023-06-01T00:20:09.329Z,100299.66
2023-06-01T00:22:40.254Z,100317.91
2023-06-01T00:25:10.148Z,100307.41
2023-06-01T00:27:39.130Z,100258.81
2023-06-01T00:30:10.782Z,100296.00
2023-06-01T00:32:40.378Z,100274.28
2023-06-01T00:35:09.453Z,100289.06
2023-06-01T00:37:38.172Z,100296.06
2023-06-01T00:40:07.646Z,100284.69
2023-06-01T00:42:36.267Z,100295.25
2023-06-01T00:45:05.502Z,100284.06
2023-06-01T00:47:43.375Z,100285.75
2023-06-01T00:50:13.407Z,100267.56
2023-06-01T00:52:43.074Z,100285.84
2023-06-01T00:55:12.972Z,100285.91
2023-06-01T00:57:43.805Z,100284.19
2023-06-01T01:00:14.132Z,100287.69
2023-06-01T01:02:45.761Z,100278.97
2023-06-01T01:05:15.199Z,100284.25
2023-06-01T01:07:57.292Z,100283.41
2023-06-01T01:10:33.937Z,100231.44
2023-06-01T01:13:09.356Z,100282.63
2023-06-01T01:15:46.388Z,100277.44
2023-06-01T01:18:22.700Z,100280.13
2023-06-01T01:20:59.562Z,100280.06
2023-06-01T01:24:00.245Z,100274.88
2023-06-01T01:26:48.077Z,100285.34
2023-06-01T01:29:18.622Z,100285.38
2023-06-01T01:31:48.555Z,100281.84
2023-06-01T01:34:17.202Z,100270.53
2023-06-01T01:36:46.364Z,100263.53
2023-06-01T01:39:14.869Z,100280.06
2023-06-01T01:41:43.410Z,100272.09
2023-06-01T01:44:12.405Z,100276.53
2023-06-01T01:46:50.526Z,100265.97
2023-06-01T01:49:27.406Z,100268.59
2023-06-01T01:52:00.152Z,100273.81
2023-06-01T01:54:30.537Z,100279.06
2023-06-01T01:57:02.226Z,100268.66
2023-06-01T01:59:31.553Z,100272.09
2023-06-01T02:02:04.008Z,100275.56
2023-06-01T02:04:33.703Z,100261.72
2023-06-01T02:07:02.309Z,100275.53
2023-06-01T02:09:34.076Z,100277.25
2023-06-01T02:12:03.226Z,100263.34
2023-06-01T02:14:33.967Z,100283.28
2023-06-01T02:17:04.694Z,100276.19
2023-06-01T02:19:33.505Z,100285.81
2023-06-01T02:22:02.928Z,100284.84
2023-06-01T02:24:31.505Z,100275.19
2023-06-01T02:27:00.150Z,100265.78
2023-06-01T02:29:29.051Z,100283.00
2023-06-01T02:31:58.149Z,100292.63
2023-06-01T02:34:28.833Z,100275.16
2023-06-01T02:36:58.301Z,100287.16
2023-06-01T02:39:26.990Z,100277.44
2023-06-01T02:41:56.891Z,100275.63
2023-06-01T02:44:25.429Z,100285.16
2023-06-01T02:46:54.155Z,100277.22
2023-06-01T02:49:22.881Z,100275.22
2023-06-01T02:51:52.908Z,100280.88
2023-06-01T02:54:24.767Z,100266.56
2023-06-01T02:56:55.064Z,100269.91
2023-06-01T02:59:26.960Z,100269.59
2023-06-01T03:02:01.590Z,100270.41
2023-06-01T03:04:34.075Z,100266.69
2023-06-01T03:07:05.668Z,100270.78
2023-06-01T03:09:52.408Z,100269.28
2023-06-01T03:12:59.652Z,100268.56
2023-06-01T03:15:29.946Z,100264.72
2023-06-01T03:17:59.008Z,100269.31
2023-06-01T03:20:27.879Z,100271.34
2023-06-01T03:22:58.280Z,100266.31
2023-06-01T03:25:27.160Z,100261.31
2023-06-01T03:27:56.637Z,100269.84
2023-06-01T03:30:27.692Z,100270.91
2023-06-01T03:32:56.488Z,100272.84
2023-06-01T03:35:25.007Z,100262.47
2023-06-01T03:37:53.760Z,100268.72
2023-06-01T03:40:24.675Z,100266.75
2023-06-01T03:42:53.284Z,100266.31
2023-06-01T03:45:22.434Z,100268.16
2023-06-01T03:47:51.141Z,100254.06
2023-06-01T03:50:20.051Z,100240.16
2023-06-01T03:52:48.873Z,100244.94
2023-06-01T03:55:17.483Z,100230.16
2023-06-01T03:58:16.672Z,100217.84
2023-06-01T04:00:47.761Z,100245.97
2023-06-01T04:03:17.481Z,100227.28
2023-06-01T04:05:51.155Z,100246.69
2023-06-01T04:08:22.782Z,100243.28
2023-06-01T04:10:52.152Z,100244.94
2023-06-01T04:13:22.246Z,100245.56
2023-06-01T04:15:50.999Z,100240.44
2023-06-01T04:18:23.137Z,100241.75
2023-06-01T04:21:01.329Z,100232.63
2023-06-01T04:23:30.511Z,100232.53
2023-06-01T04:26:00.968Z,100224.00
2023-06-01T04:28:34.308Z,100243.09
2023-06-01T04:31:04.284Z,100228.94
2023-06-01T04:33:33.132Z,100231.66
2023-06-01T04:36:02.280Z,100222.16
2023-06-01T04:38:33.517Z,100230.91
2023-06-01T04:41:02.495Z,100221.09
2023-06-01T04:43:34.324Z,100201.13
2023-06-01T04:46:05.073Z,100224.25
2023-06-01T04:48:34.682Z,100224.13
2023-06-01T04:51:18.207Z,100216.25
2023-06-01T04:53:50.849Z,100215.94
2023-06-01T04:56:21.776Z,100220.19
2023-06-01T04:58:55.831Z,100213.78
2023-06-01T05:01:26.515Z,100225.78
2023-06-01T05:03:57.082Z,100225.56
2023-06-01T05:06:27.565Z,100218.22
2023-06-01T05:08:57.110Z,100207.56
2023-06-01T05:11:27.082Z,100185.78
2023-06-01T05:14:02.490Z,100204.63
2023-06-01T05:16:33.056Z,100209.28
2023-06-01T05:19:02.584Z,100169.88
2023-06-01T05:21:33.060Z,100190.72
2023-06-01T05:24:01.733Z,100191.84
2023-06-01T05:26:30.188Z,100195.84
2023-06-01T05:29:01.444Z,100200.34
2023-06-01T05:31:30.759Z,100195.19
2023-06-01T05:34:00.551Z,100183.34
2023-06-01T05:36:33.010Z,100196.59
2023-06-01T05:39:02.345Z,100203.84
2023-06-01T05:41:30.972Z,100207.25
2023-06-01T05:44:01.412Z,100220.41
2023-06-01T05:46:29.776Z,100219.44
2023-06-01T05:48:58.147Z,100215.88
2023-06-01T05:51:26.696Z,100202.53
2023-06-01T05:53:58.890Z,100195.19
2023-06-01T05:56:28.310Z,100181.13
2023-06-01T05:58:57.444Z,100186.97
2023-06-01T06:01:28.405Z,100193.13
2023-06-01T06:03:58.540Z,100190.25
2023-06-01T06:06:28.008Z,100185.91
2023-06-01T06:08:56.493Z,100179.78
2023-06-01T06:11:25.034Z,100197.00
2023-06-01T06:13:53.575Z,100191.56
2023-06-01T06:16:22.215Z,100176.31
2023-06-01T06:18:52.596Z,100164.00
2023-06-01T06:21:21.051Z,100194.63
2023-06-01T06:23:51.630Z,100194.56
2023-06-01T06:26:20.351Z,100192.34
2023-06-01T06:28:48.897Z,100191.66
2023-06-01T06:31:21.421Z,100157.13
2023-06-01T06:33:53.409Z,100206.31
2023-06-01T06:36:22.192Z,100207.06
2023-06-01T06:38:55.399Z,100211.69
2023-06-01T06:41:24.354Z,100210.72
2023-06-01T06:43:52.700Z,100213.50
2023-06-01T06:46:21.324Z,100214.41
2023-06-01T06:48:51.211Z,100221.16
2023-06-01T06:51:19.801Z,100221.28
2023-06-01T06:53:48.338Z,100223.50
2023-06-01T06:56:17.221Z,100230.97
2023-06-01T06:58:53.723Z,100233.81
2023-06-01T07:01:28.865Z,100222.06
2023-06-01T07:03:58.896Z,100226.06
2023-06-01T07:06:27.272Z,100232.38
2023-06-01T07:08:55.908Z,100230.09
2023-06-01T07:11:24.813Z,100238.72
2023-06-01T07:13:53.253Z,100213.16
2023-06-01T07:16:21.978Z,100229.53
2023-06-01T07:18:50.469Z,100202.91
2023-06-01T07:21:20.536Z,100223.97
2023-06-01T07:23:49.021Z,100218.97
2023-06-01T07:26:17.455Z,100199.59
2023-06-01T07:28:46.066Z,100212.88
2023-06-01T07:31:14.656Z,100212.16
2023-06-01T07:33:43.410Z,100205.31
2023-06-01T07:36:12.920Z,100203.75
2023-06-01T07:38:43.029Z,100196.34
2023-06-01T07:41:12.334Z,100192.41
2023-06-01T07:43:40.916Z,100199.59
2023-06-01T07:46:09.872Z,100205.75
2023-06-01T07:48:40.844Z,100203.53
2023-06-01T07:51:11.174Z,100200.81
2023-06-01T07:53:39.548Z,100215.06
2023-06-01T07:56:09.765Z,100203.38
2023-06-01T07:58:38.894Z,100211.03
2023-06-01T08:01:07.781Z,100214.19
2023-06-01T08:03:37.179Z,100212.34
2023-06-01T08:06:06.660Z,100212.38
2023-06-01T08:08:35.548Z,100221.28
2023-06-01T08:11:03.925Z,100222.81
2023-06-01T08:13:37.375Z,100232.09
2023-06-01T08:16:06.208Z,100207.34
2023-06-01T08:18:34.709Z,100228.88
2023-06-01T08:21:03.400Z,100238.22
2023-06-01T08:23:32.066Z,100246.97
2023-06-01T08:26:00.733Z,100255.00
2023-06-01T08:28:29.460Z,100247.81
2023-06-01T08:30:59.242Z,100242.63
2023-06-01T08:33:27.649Z,100254.59
2023-06-01T08:35:56.357Z,100256.16
2023-06-01T08:38:25.914Z,100238.47
2023-06-01T08:40:55.155Z,100269.69
2023-06-01T08:43:29.380Z,100266.78
2023-06-01T08:46:02.252Z,100268.38
2023-06-01T08:48:33.901Z,100250.59
2023-06-01T08:51:03.163Z,100277.59
2023-06-01T08:53:32.643Z,100268.75
2023-06-01T08:56:01.399Z,100271.00
2023-06-01T08:58:30.571Z,100276.69
2023-06-01T09:01:01.307Z,100282.00
2023-06-01T09:03:29.971Z,100282.56
2023-06-01T09:05:58.668Z,100270.06
2023-06-01T09:08:27.643Z,100284.16
2023-06-01T09:10:56.402Z,100268.03
2023-06-01T09:13:37.963Z,100268.38
2023-06-01T09:16:08.509Z,100276.94
2023-06-01T09:18:37.620Z,100286.13
2023-06-01T09:21:13.066Z,100283.84
2023-06-01T09:23:43.743Z,100286.56
2023-06-01T09:26:16.039Z,100277.19
2023-06-01T09:28:59.309Z,100269.44
2023-06-01T09:31:43.267Z,100270.16
2023-06-01T09:34:13.465Z,100283.09
2023-06-01T09:36:41.939Z,100290.13
2023-06-01T09:39:12.278Z,100284.03
2023-06-01T09:41:51.755Z,100286.72
2023-06-01T09:44:30.979Z,100289.88
2023-06-01T09:47:02.609Z,100292.84
2023-06-01T09:49:33.554Z,100293.59
2023-06-01T09:52:16.128Z,100294.69
2023-06-01T09:54:47.151Z,100301.34
2023-06-01T09:57:22.997Z,100302.88
2023-06-01T09:59:51.577Z,100310.16
2023-06-01T10:02:23.035Z,100312.38
2023-06-01T10:04:53.762Z,100276.41
2023-06-01T10:07:25.039Z,100312.72
2023-06-01T10:09:56.114Z,100319.50
2023-06-01T10:12:24.934Z,100303.09
2023-06-01T10:14:53.848Z,100323.06
2023-06-01T10:17:24.599Z,100320.84
2023-06-01T10:19:54.192Z,100326.81
2023-06-01T10:22:23.216Z,100330.50
2023-06-01T10:24:52.201Z,100322.59
2023-06-01T10:27:24.717Z,100359.56
2023-06-01T10:29:55.843Z,100342.03
2023-06-01T10:32:45.423Z,100352.53
2023-06-01T10:35:47.048Z,100347.22
2023-06-01T10:38:28.660Z,100340.75
2023-06-01T10:41:37.264Z,100353.22
2023-06-01T10:44:06.162Z,100361.41
2023-06-01T10:46:45.450Z,100358.09
2023-06-01T10:49:16.179Z,100350.34
2023-06-01T10:51:44.617Z,100360.91
2023-06-01T10:54:34.239Z,100364.13
2023-06-01T10:57:25.512Z,100370.94
2023-06-01T11:00:16.174Z,100377.09
2023-06-01T11:02:49.466Z,100377.25
2023-06-01T11:05:43.912Z,100376.19
2023-06-01T11:08:45.709Z,100376.75
2023-06-01T11:11:14.277Z,100373.94
2023-06-01T11:13:43.062Z,100376.72
2023-06-01T11:16:31.819Z,100381.25
2023-06-01T11:19:01.397Z,100378.47
2023-06-01T11:21:34.370Z,100389.38
2023-06-01T11:24:07.289Z,100389.25
2023-06-01T11:26:38.789Z,100393.25
2023-06-01T11:29:09.677Z,100398.28
2023-06-01T11:31:40.174Z,100400.25
2023-06-01T11:34:10.001Z,100400.63
2023-06-01T11:36:42.189Z,100405.69
2023-06-01T11:39:26.094Z,100400.09
2023-06-01T11:42:07.565Z,100416.34
2023-06-01T11:44:37.503Z,100408.56
2023-06-01T11:47:07.930Z,100417.97
2023-06-01T11:49:45.307Z,100413.44
2023-06-01T11:52:15.222Z,100407.69
2023-06-01T11:54:43.957Z,100414.28
2023-06-01T11:57:12.726Z,100426.34
2023-06-01T11:59:41.701Z,100420.16
2023-06-01T12:02:21.867Z,100419.47
2023-06-01T12:04:58.573Z,100421.00
2023-06-01T12:07:29.271Z,100424.50
2023-06-01T12:10:01.745Z,100429.59
2023-06-01T12:12:34.820Z,100425.03
2023-06-01T12:15:03.703Z,100426.00
2023-06-01T12:17:48.670Z,100423.63
2023-06-01T12:20:29.954Z,100421.63
2023-06-01T12:23:00.679Z,100423.50
2023-06-01T12:25:29.213Z,100432.31
2023-06-01T12:28:05.845Z,100431.69
2023-06-01T12:30:34.737Z,100439.31
2023-06-01T12:33:05.677Z,100430.06
2023-06-01T12:35:34.942Z,100421.91
2023-06-01T12:38:10.046Z,100432.34
2023-06-01T12:40:39.610Z,100439.06
2023-06-01T12:43:19.654Z,100438.91
2023-06-01T12:45:48.237Z,100451.78
2023-06-01T12:48:34.990Z,100442.66
2023-06-01T12:51:04.868Z,100454.84
2023-06-01T12:53:35.138Z,100451.25
2023-06-01T12:56:04.317Z,100455.94
2023-06-01T12:58:32.939Z,100453.59
2023-06-01T13:01:02.043Z,100464.47
2023-06-01T13:03:30.643Z,100460.19
2023-06-01T13:05:59.261Z,100463.22
2023-06-01T13:08:27.878Z,100460.03
2023-06-01T13:10:57.662Z,100448.09
2023-06-01T13:13:26.128Z,100470.59
2023-06-01T13:15:54.851Z,100454.63
2023-06-01T13:18:23.474Z,100471.56
2023-06-01T13:20:53.245Z,100478.34
2023-06-01T13:23:21.932Z,100482.75
2023-06-01T13:25:50.874Z,100483.75
2023-06-01T13:28:20.674Z,100479.13
2023-06-01T13:30:49.284Z,100489.63
2023-06-01T13:33:17.730Z,100486.91
2023-06-01T13:35:48.624Z,100486.31
2023-06-01T13:38:17.344Z,100491.03
2023-06-01T13:40:46.398Z,100490.84
2023-06-01T13:43:15.023Z,100501.97
2023-06-01T13:45:45.168Z,100505.59
2023-06-01T13:48:16.515Z,100495.66
2023-06-01T13:50:46.516Z,100504.25
2023-06-01T13:53:14.872Z,100498.38
2023-06-01T13:55:43.256Z,100504.53
2023-06-01T13:58:11.663Z,100506.72
2023-06-01T14:00:41.635Z,100517.75
2023-06-01T14:03:12.857Z,100485.41
2023-06-01T14:05:51.304Z,100521.91
2023-06-01T14:08:22.468Z,100530.94
2023-06-01T14:10:50.870Z,100529.88
2023-06-01T14:13:19.536Z,100532.03
2023-06-01T14:15:47.927Z,100529.78
2023-06-01T14:18:17.846Z,100518.84
2023-06-01T14:20:46.322Z,100538.41
2023-06-01T14:23:15.122Z,100542.38
2023-06-01T14:25:43.774Z,100550.44
2023-06-01T14:28:12.171Z,100539.09
2023-06-01T14:30:40.780Z,100549.47
2023-06-01T14:33:09.309Z,100549.16
2023-06-01T14:35:39.209Z,100538.78
2023-06-01T14:38:07.503Z,100541.47
2023-06-01T14:40:35.847Z,100536.97
2023-06-01T14:43:04.443Z,100543.06
2023-06-01T14:45:32.905Z,100545.75
2023-06-01T14:48:01.460Z,100547.75
2023-06-01T14:50:29.816Z,100544.81
2023-06-01T14:53:00.964Z,100530.13
2023-06-01T14:55:29.809Z,100544.81
2023-06-01T14:57:58.487Z,100551.72
2023-06-01T15:00:27.837Z,100546.44
2023-06-01T15:02:58.655Z,100549.84
2023-06-01T15:05:30.784Z,100550.25
2023-06-01T15:08:01.520Z,100554.06
2023-06-01T15:10:30.393Z,100550.31
2023-06-01T15:12:58.977Z,100559.88
2023-06-01T15:15:29.582Z,100557.53
2023-06-01T15:17:59.207Z,100554.41
2023-06-01T15:20:30.973Z,100558.56
2023-06-01T15:23:01.496Z,100557.41
2023-06-01T15:25:31.097Z,100564.53
2023-06-01T15:28:00.026Z,100563.19
2023-06-01T15:30:32.562Z,100554.81
2023-06-01T15:35:36.664Z,100563.75
2023-06-01T15:38:08.179Z,100565.59
2023-06-01T15:40:37.620Z,100563.84
2023-06-01T15:43:06.915Z,100553.25
2023-06-01T15:45:35.854Z,100552.94
2023-06-01T15:48:04.552Z,100564.31
2023-06-01T15:50:34.259Z,100547.41
2023-06-01T15:53:03.034Z,100562.69
2023-06-01T15:55:33.416Z,100563.28
2023-06-01T15:58:02.363Z,100558.81
2023-06-01T16:00:32.578Z,100560.28
2023-06-01T16:03:01.635Z,100552.28
2023-06-01T16:05:30.276Z,100563.34
2023-06-01T16:07:58.921Z,100567.09
2023-06-01T16:10:31.212Z,100574.63
2023-06-01T16:13:04.150Z,100567.03
2023-06-01T16:15:33.837Z,100554.09
2023-06-01T16:18:02.676Z,100568.59
2023-06-01T16:20:32.194Z,100579.56
2023-06-01T16:23:07.724Z,100575.19
2023-06-01T16:25:36.514Z,100568.94
2023-06-01T16:28:06.881Z,100574.03
2023-06-01T16:30:38.097Z,100570.44
2023-06-01T16:33:07.198Z,100583.75
2023-06-01T16:35:36.287Z,100562.44
2023-06-01T16:38:04.880Z,100587.88
2023-06-01T16:40:33.427Z,100588.81
2023-06-01T16:43:02.233Z,100588.84
2023-06-01T16:45:32.464Z,100581.03
2023-06-01T16:48:02.938Z,100577.13
2023-06-01T16:50:31.752Z,100590.22
2023-06-01T16:53:00.195Z,100570.41
2023-06-01T16:55:29.560Z,100577.63
2023-06-01T16:57:57.939Z,100588.41
2023-06-01T17:00:29.244Z,100586.84
2023-06-01T17:03:02.642Z,100583.59
2023-06-01T17:05:31.498Z,100591.78
2023-06-01T17:08:31.057Z,100587.53
2023-06-01T17:11:02.950Z,100591.16
2023-06-01T17:13:31.672Z,100594.97
2023-06-01T17:16:00.442Z,100604.97
2023-06-01T17:18:31.103Z,100600.78
2023-06-01T17:20:59.732Z,100602.72
2023-06-01T17:23:29.799Z,100605.59
2023-06-01T17:25:58.215Z,100589.44
2023-06-01T17:28:26.737Z,100581.00
2023-06-01T17:30:55.246Z,100597.69
2023-06-01T17:33:23.710Z,100596.91
2023-06-01T17:35:53.796Z,100600.66
2023-06-01T17:38:23.708Z,100605.19
2023-06-01T17:40:53.936Z,100601.97
2023-06-01T17:43:22.642Z,100608.22
2023-06-01T17:45:51.284Z,100613.63
2023-06-01T17:48:19.780Z,100613.69
2023-06-01T17:50:48.255Z,100603.47
2023-06-01T17:53:33.911Z,100605.13
2023-06-01T17:56:07.583Z,100622.84
2023-06-01T17:58:35.953Z,100616.88
2023-06-01T18:01:04.665Z,100629.22
2023-06-01T18:03:33.094Z,100619.69
2023-06-01T18:06:02.084Z,100629.41
2023-06-01T18:08:32.260Z,100622.47
2023-06-01T18:11:07.481Z,100625.22
2023-06-01T18:13:36.837Z,100628.84
2023-06-01T18:16:09.235Z,100634.22
2023-06-01T18:18:38.946Z,100629.03
2023-06-01T18:21:09.620Z,100635.28
2023-06-01T18:23:40.111Z,100638.06
2023-06-01T18:26:11.038Z,100636.41
2023-06-01T18:28:39.460Z,100636.47
2023-06-01T18:31:08.380Z,100631.22
2023-06-01T18:33:37.001Z,100637.41
2023-06-01T18:36:06.082Z,100595.75
2023-06-01T18:38:34.922Z,100640.16
2023-06-01T18:41:04.770Z,100640.19
2023-06-01T18:43:33.394Z,100639.34
2023-06-01T18:46:02.517Z,100642.84
2023-06-01T18:48:33.561Z,100648.94
2023-06-01T18:51:02.521Z,100648.97
2023-06-01T18:53:30.975Z,100648.22
2023-06-01T18:55:59.515Z,100645.66
2023-06-01T18:58:29.492Z,100646.56
2023-06-01T19:00:59.281Z,100642.22
2023-06-01T19:03:27.942Z,100642.31
2023-06-01T19:05:56.928Z,100638.00
2023-06-01T19:08:25.617Z,100650.31
2023-06-01T19:11:00.593Z,100647.78
2023-06-01T19:13:39.347Z,100649.56
2023-06-01T19:16:08.913Z,100650.63
2023-06-01T19:18:37.407Z,100653.31
2023-06-01T19:21:17.217Z,100651.63
2023-06-01T19:23:49.698Z,100650.84
2023-06-01T19:26:22.718Z,100646.50
2023-06-01T19:29:00.286Z,100624.84
2023-06-01T19:31:34.270Z,100662.41
2023-06-01T19:34:03.868Z,100659.00
2023-06-01T19:36:58.169Z,100669.50
2023-06-01T19:39:32.474Z,100667.81
2023-06-01T19:42:08.734Z,100653.91
2023-06-01T19:44:38.936Z,100667.97
2023-06-01T19:47:10.611Z,100672.34
2023-06-01T19:49:42.270Z,100670.66
2023-06-01T19:52:11.961Z,100674.16
2023-06-01T19:54:44.146Z,100675.03
2023-06-01T19:57:12.662Z,100674.22
2023-06-01T19:59:42.445Z,100685.56
2023-06-01T20:02:41.729Z,100688.25
2023-06-01T20:05:12.212Z,100694.41
2023-06-01T20:07:40.753Z,100694.47
2023-06-01T20:10:17.518Z,100690.13
2023-06-01T20:12:46.242Z,100692.75
2023-06-01T20:15:16.311Z,100691.03
2023-06-01T20:17:44.804Z,100691.09
2023-06-01T20:20:16.119Z,100703.38
2023-06-01T20:22:44.613Z,100700.84
2023-06-01T20:25:16.137Z,100654.69
2023-06-01T20:27:44.582Z,100700.03
2023-06-01T20:30:47.945Z,100704.44
2023-06-01T20:33:25.504Z,100708.84
2023-06-01T20:35:54.050Z,100706.22
2023-06-01T20:38:22.423Z,100714.09
2023-06-01T20:41:12.236Z,100711.53
2023-06-01T20:43:41.831Z,100701.06
2023-06-01T20:46:13.670Z,100724.63
2023-06-01T20:48:53.538Z,100735.09
2023-06-01T20:51:27.535Z,100724.66
2023-06-01T20:53:58.645Z,100729.88
2023-06-01T20:56:31.785Z,100736.84
2023-06-01T20:59:08.719Z,100740.34
2023-06-01T21:01:39.903Z,100738.59
2023-06-01T21:04:10.452Z,100746.44
2023-06-01T21:06:38.936Z,100737.72
2023-06-01T21:09:10.637Z,100747.31
2023-06-01T21:11:40.313Z,100747.34
2023-06-01T21:14:09.015Z,100752.53
2023-06-01T21:16:48.411Z,100749.94
2023-06-01T21:19:17.292Z,100755.19
2023-06-01T21:21:45.988Z,100758.66
2023-06-01T21:24:14.940Z,100761.25
2023-06-01T21:26:43.755Z,100762.13
2023-06-01T21:29:14.134Z,100759.50
2023-06-01T21:31:44.292Z,100782.19
2023-06-01T21:34:13.093Z,100778.72
2023-06-01T21:36:41.723Z,100771.75
2023-06-01T21:39:10.469Z,100788.31
2023-06-01T21:41:39.211Z,100790.06
2023-06-01T21:44:07.808Z,100784.84
2023-06-01T21:46:36.473Z,100783.94
2023-06-01T21:49:06.700Z,100791.78
2023-06-01T21:51:35.307Z,100797.91
2023-06-01T21:54:03.991Z,100798.75
2023-06-01T21:56:32.605Z,100793.50
2023-06-01T21:59:01.960Z,100797.84
2023-06-01T22:01:30.734Z,100796.09
2023-06-01T22:03:59.483Z,100793.44
2023-06-01T22:06:29.508Z,100813.47
2023-06-01T22:08:58.055Z,100816.97
2023-06-01T22:11:27.420Z,100815.22
2023-06-01T22:13:56.273Z,100817.00
2023-06-01T22:16:25.344Z,100806.50
2023-06-01T22:18:53.783Z,100809.09
2023-06-01T22:21:22.442Z,100819.56
2023-06-01T22:23:52.312Z,100815.22
2023-06-01T22:26:20.790Z,100818.69
2023-06-01T22:28:49.190Z,100819.56
2023-06-01T22:31:17.664Z,100816.00
2023-06-01T22:33:46.217Z,100825.59
2023-06-01T22:36:14.852Z,100830.75
2023-06-01T22:38:44.850Z,100833.34
2023-06-01T22:41:15.160Z,100831.59
2023-06-01T22:43:43.634Z,100835.88
2023-06-01T22:46:12.057Z,100838.47
2023-06-01T22:48:40.555Z,100832.34
2023-06-01T22:51:09.106Z,100843.59
2023-06-01T22:53:37.526Z,100844.44
2023-06-01T22:56:08.492Z,100850.47
2023-06-01T22:58:38.653Z,100851.28
2023-06-01T23:01:08.789Z,100837.28
2023-06-01T23:03:37.549Z,100836.31
2023-06-01T23:06:07.931Z,100837.16
2023-06-01T23:08:37.126Z,100851.06
2023-06-01T23:11:08.717Z,100855.38
2023-06-01T23:13:42.340Z,100847.50
2023-06-01T23:16:13.983Z,100850.91
2023-06-01T23:18:43.508Z,100837.72
2023-06-01T23:21:14.256Z,100844.63
2023-06-01T23:23:46.743Z,100852.47
2023-06-01T23:26:16.106Z,100827.94
2023-06-01T23:28:57.007Z,100842.72
2023-06-01T23:31:26.608Z,100853.13
2023-06-01T23:33:56.684Z,100844.34
2023-06-01T23:36:28.326Z,100855.63
2023-06-01T23:38:57.377Z,100847.72
2023-06-01T23:41:26.066Z,100855.53
2023-06-01T23:43:56.009Z,100854.66
2023-06-01T23:46:25.068Z,100852.91
2023-06-01T23:48:54.008Z,100858.06
2023-06-01T23:51:22.782Z,100853.66
2023-06-01T23:53:51.429Z,100864.06
2023-06-01T23:56:20.916Z,100855.38
2023-06-01T23:58:49.405Z,100858.84
